PWSweather.com
Personal Weather Stations
Station Observations
KILMORRI1
Goose Lake, Morris, IL 60450

Goose LakeMorris, IL 60450

Lat: 41.34, Lon: -88.3

Elevation: 523

Station Type:

Latest ConditionsUpdated 4:40:04 PM CST Wednesday, Feb 20, 2019
Currently Today's Max Today's Min Today's Average
Temperature 36.3°F2.4°C 37.6°F3.1°C 28.6°F-1.9°C 32.2°F0.1°C
Dew Point 33.7°F0.9°C 35.5°F1.9°C 23.6°F-4.7°C 29.3°F-1.5°C
Winds 5.8 mph SW9.3 kmh SW 16.1 mph -25.9 kmh - - 8.4 mph 13.5 kmh
Wind Gusts 9.2 mph14.8 kmh 23.0 mph37.0 kmh - -
Humidity 90% 94% 76% 89%
Pressure 29.75 in1007.5 mb 30.28 in1025.4 mb 29.70 in1005.8 mb -
Precipitation - 0.09 in2.3 mm - -
Hour Temp Dew Point Humidity Winds Wind Gusts Pressure Precip Precip Rate Daily Precip Total
04:40 PM 36.3°F2.4°C 33.7°F0.9°C 90% 5.8 mph SW9.3 kmh SW 9.2 mph14.8 kmh 29.75 in1007.5 mb - 0.00 in0.0 mm 0.09 in2.3 mm
04:30 PM 36.4°F2.4°C 33.8°F1.0°C 90% 4.6 mph WSW7.4 kmh WSW 6.9 mph11.1 kmh 29.75 in1007.5 mb - 0.00 in0.0 mm 0.09 in2.3 mm
04:20 PM 36.6°F2.6°C 33.9°F1.1°C 90% 4.6 mph SW7.4 kmh SW 6.9 mph11.1 kmh 29.74 in1007.1 mb - 0.00 in0.0 mm 0.09 in2.3 mm
04:10 PM 36.7°F2.6°C 34.0°F1.1°C 90% 3.5 mph SW5.6 kmh SW 5.8 mph9.3 kmh 29.74 in1007.1 mb - 0.00 in0.0 mm 0.09 in2.3 mm
04:00 PM 36.8°F2.7°C 34.2°F1.2°C 90% 8.1 mph SW13.0 kmh SW 9.2 mph14.8 kmh 29.74 in1007.1 mb - 0.00 in0.0 mm 0.09 in2.3 mm
03:50 PM 37.0°F2.8°C 34.3°F1.3°C 90% 5.8 mph SW9.3 kmh SW 10.4 mph16.7 kmh 29.74 in1007.1 mb - 0.00 in0.0 mm 0.09 in2.3 mm
03:40 PM 37.2°F2.9°C 34.9°F1.6°C 91% 9.2 mph SW14.8 kmh SW 13.8 mph22.2 kmh 29.73 in1006.8 mb - 0.00 in0.0 mm 0.09 in2.3 mm
03:30 PM 37.5°F3.1°C 35.1°F1.7°C 91% 5.8 mph SW9.3 kmh SW 6.9 mph11.1 kmh 29.73 in1006.8 mb - 0.00 in0.0 mm 0.09 in2.3 mm
03:20 PM 37.4°F3.0°C 35.0°F1.7°C 91% 6.9 mph SSW11.1 kmh SSW 9.2 mph14.8 kmh 29.71 in1006.1 mb - 0.00 in0.0 mm 0.09 in2.3 mm
03:10 PM 37.5°F3.1°C 35.4°F1.9°C 92% 5.8 mph SW9.3 kmh SW 11.5 mph18.5 kmh 29.71 in1006.1 mb - 0.00 in0.0 mm 0.09 in2.3 mm
03:00 PM 37.6°F3.1°C 35.5°F1.9°C 92% 5.8 mph SW9.3 kmh SW 9.2 mph14.8 kmh 29.71 in1006.1 mb - 0.00 in0.0 mm 0.09 in2.3 mm
02:50 PM 37.2°F2.9°C 35.4°F1.9°C 93% 5.8 mph SSW9.3 kmh SSW 10.4 mph16.7 kmh 29.70 in1005.8 mb - 0.00 in0.0 mm 0.09 in2.3 mm
02:40 PM 36.8°F2.7°C 35.2°F1.8°C 94% 5.8 mph S9.3 kmh S 6.9 mph11.1 kmh 29.71 in1006.1 mb - 0.00 in0.0 mm 0.09 in2.3 mm
02:30 PM 36.6°F2.6°C 35.0°F1.7°C 94% 5.8 mph SSW9.3 kmh SSW 6.9 mph11.1 kmh 29.71 in1006.1 mb - 0.00 in0.0 mm 0.09 in2.3 mm
02:20 PM 36.5°F2.5°C 34.9°F1.6°C 94% 5.8 mph SSW9.3 kmh SSW 9.2 mph14.8 kmh 29.70 in1005.8 mb - 0.00 in0.0 mm 0.09 in2.3 mm
02:10 PM 36.3°F2.4°C 34.7°F1.5°C 94% 3.5 mph SSW5.6 kmh SSW 4.6 mph7.4 kmh 29.70 in1005.8 mb - 0.00 in0.0 mm 0.09 in2.3 mm
02:00 PM 36.3°F2.4°C 34.7°F1.5°C 94% 4.6 mph S7.4 kmh S 8.1 mph13.0 kmh 29.70 in1005.8 mb - 0.00 in0.0 mm 0.09 in2.3 mm
01:50 PM 36.4°F2.4°C 34.8°F1.6°C 94% 4.6 mph S7.4 kmh S 8.1 mph13.0 kmh 29.70 in1005.8 mb - 0.00 in0.0 mm 0.09 in2.3 mm
01:40 PM 36.4°F2.4°C 34.6°F1.4°C 93% 4.6 mph S7.4 kmh S 9.2 mph14.8 kmh 29.70 in1005.8 mb - 0.00 in0.0 mm 0.09 in2.3 mm
01:30 PM 36.4°F2.4°C 34.6°F1.4°C 93% 3.5 mph S5.6 kmh S 5.8 mph9.3 kmh 29.70 in1005.8 mb - 0.00 in0.0 mm 0.09 in2.3 mm
01:20 PM 36.3°F2.4°C 34.8°F1.6°C 94% 3.5 mph SSE5.6 kmh SSE 8.1 mph13.0 kmh 29.71 in1006.1 mb - 0.01 in0.3 mm 0.09 in2.3 mm
01:10 PM 36.3°F2.4°C 34.7°F1.5°C 94% 4.6 mph S7.4 kmh S 9.2 mph14.8 kmh 29.71 in1006.1 mb - 0.00 in0.0 mm 0.08 in2.0 mm
01:00 PM 36.0°F2.2°C 34.4°F1.3°C 94% 4.6 mph S7.4 kmh S 8.1 mph13.0 kmh 29.72 in1006.4 mb - 0.00 in0.0 mm 0.08 in2.0 mm
12:50 PM 35.7°F2.1°C 34.2°F1.2°C 94% 3.5 mph SSE5.6 kmh SSE 4.6 mph7.4 kmh 29.72 in1006.4 mb - 0.01 in0.3 mm 0.08 in2.0 mm
12:40 PM 35.4°F1.9°C 33.8°F1.0°C 94% 3.5 mph SSE5.6 kmh SSE 6.9 mph11.1 kmh 29.73 in1006.8 mb - 0.00 in0.0 mm 0.07 in1.8 mm
12:30 PM 35.2°F1.8°C 33.4°F0.8°C 93% 3.5 mph SE5.6 kmh SE 6.9 mph11.1 kmh 29.73 in1006.8 mb - 0.00 in0.0 mm 0.07 in1.8 mm
12:20 PM 35.2°F1.8°C 33.3°F0.7°C 93% 4.6 mph SE7.4 kmh SE 9.2 mph14.8 kmh 29.73 in1006.8 mb - 0.01 in0.3 mm 0.07 in1.8 mm
12:10 PM 35.1°F1.7°C 33.3°F0.7°C 93% 6.9 mph SE11.1 kmh SE 11.5 mph18.5 kmh 29.74 in1007.1 mb - 0.01 in0.3 mm 0.06 in1.5 mm
12:00 PM 35.0°F1.7°C 33.2°F0.7°C 93% 4.6 mph SE7.4 kmh SE 9.2 mph14.8 kmh 29.75 in1007.5 mb - 0.01 in0.3 mm 0.05 in1.3 mm
11:50 AM 34.7°F1.5°C 32.8°F0.4°C 93% 6.9 mph ESE11.1 kmh ESE 10.4 mph16.7 kmh 29.75 in1007.5 mb - 0.01 in0.3 mm 0.04 in1.0 mm
11:40 AM 34.4°F1.3°C 32.6°F0.3°C 93% 6.9 mph SE11.1 kmh SE 13.8 mph22.2 kmh 29.76 in1007.8 mb - 0.01 in0.3 mm 0.03 in0.8 mm
11:30 AM 34.3°F1.3°C 32.5°F0.3°C 93% 3.5 mph SE5.6 kmh SE 11.5 mph18.5 kmh 29.77 in1008.1 mb - 0.01 in0.3 mm 0.02 in0.5 mm
11:20 AM 34.1°F1.2°C 32.3°F0.2°C 93% 4.6 mph SE7.4 kmh SE 6.9 mph11.1 kmh 29.77 in1008.1 mb - 0.01 in0.3 mm 0.01 in0.3 mm
11:10 AM 33.9°F1.1°C 32.1°F0.1°C 93% 8.1 mph ESE13.0 kmh ESE 11.5 mph18.5 kmh 29.77 in1008.1 mb - 0.00 in0.0 mm 0.00 in0.0 mm
11:00 AM 33.5°F0.8°C 31.7°F-0.2°C 93% 3.5 mph ESE5.6 kmh ESE 3.5 mph5.6 kmh 29.77 in1008.1 mb - 0.00 in0.0 mm 0.00 in0.0 mm
10:50 AM 33.3°F0.7°C 31.5°F-0.3°C 93% 5.8 mph ESE9.3 kmh ESE 8.1 mph13.0 kmh 29.78 in1008.5 mb - 0.00 in0.0 mm 0.00 in0.0 mm
10:40 AM 33.1°F0.6°C 31.3°F-0.4°C 93% 5.8 mph SE9.3 kmh SE 12.7 mph20.4 kmh 29.78 in1008.5 mb - 0.00 in0.0 mm 0.00 in0.0 mm
10:30 AM 32.9°F0.5°C 31.1°F-0.5°C 93% 5.8 mph E9.3 kmh E 6.9 mph11.1 kmh 29.79 in1008.8 mb - 0.00 in0.0 mm 0.00 in0.0 mm
10:20 AM 32.7°F0.4°C 30.9°F-0.6°C 93% 5.8 mph ESE9.3 kmh ESE 6.9 mph11.1 kmh 29.80 in1009.1 mb - 0.00 in0.0 mm 0.00 in0.0 mm
10:10 AM 32.5°F0.3°C 30.7°F-0.7°C 93% 5.8 mph E9.3 kmh E 10.4 mph16.7 kmh 29.81 in1009.5 mb - 0.00 in0.0 mm 0.00 in0.0 mm
10:00 AM 32.6°F0.3°C 30.8°F-0.7°C 93% 5.8 mph E9.3 kmh E 10.4 mph16.7 kmh 29.82 in1009.8 mb - 0.00 in0.0 mm 0.00 in0.0 mm
09:50 AM 32.6°F0.3°C 30.8°F-0.7°C 93% 6.9 mph ESE11.1 kmh ESE 11.5 mph18.5 kmh 29.83 in1010.2 mb - 0.00 in0.0 mm 0.00 in0.0 mm
09:40 AM 32.4°F0.2°C 30.3°F-0.9°C 92% 11.5 mph E18.5 kmh E 16.1 mph25.9 kmh 29.83 in1010.2 mb - 0.00 in0.0 mm 0.00 in0.0 mm
09:30 AM 32.1°F0.1°C 30.3°F-0.9°C 93% 8.1 mph ESE13.0 kmh ESE 11.5 mph18.5 kmh 29.85 in1010.8 mb - 0.00 in0.0 mm 0.00 in0.0 mm
09:20 AM 31.7°F-0.2°C 29.9°F-1.2°C 93% 6.9 mph ESE11.1 kmh ESE 11.5 mph18.5 kmh 29.86 in1011.2 mb - 0.00 in0.0 mm 0.00 in0.0 mm
09:10 AM 31.3°F-0.4°C 29.5°F-1.4°C 93% 8.1 mph E13.0 kmh E 10.4 mph16.7 kmh 29.86 in1011.2 mb - 0.00 in0.0 mm 0.00 in0.0 mm
09:00 AM 30.9°F-0.6°C 28.9°F-1.7°C 92% 8.1 mph E13.0 kmh E 9.2 mph14.8 kmh 29.87 in1011.5 mb - 0.00 in0.0 mm 0.00 in0.0 mm
08:50 AM 30.7°F-0.7°C 28.7°F-1.8°C 92% 11.5 mph E18.5 kmh E 16.1 mph25.9 kmh 29.87 in1011.5 mb - 0.00 in0.0 mm 0.00 in0.0 mm
08:40 AM 30.8°F-0.7°C 28.8°F-1.8°C 92% 8.1 mph E13.0 kmh E 10.4 mph16.7 kmh 29.88 in1011.9 mb - 0.00 in0.0 mm 0.00 in0.0 mm
08:30 AM 30.8°F-0.7°C 28.8°F-1.8°C 92% 11.5 mph E18.5 kmh E 16.1 mph25.9 kmh 29.88 in1011.9 mb - 0.00 in0.0 mm 0.00 in0.0 mm
08:20 AM 30.8°F-0.7°C 28.8°F-1.8°C 92% 15.0 mph E24.1 kmh E 19.6 mph31.5 kmh 29.88 in1011.9 mb - 0.00 in0.0 mm 0.00 in0.0 mm
08:10 AM 30.6°F-0.8°C 28.6°F-1.9°C 92% 15.0 mph E24.1 kmh E 18.4 mph29.6 kmh 29.88 in1011.9 mb - 0.00 in0.0 mm 0.00 in0.0 mm
08:00 AM 30.5°F-0.8°C 28.5°F-1.9°C 92% 16.1 mph E25.9 kmh E 23.0 mph37.0 kmh 29.90 in1012.5 mb - 0.00 in0.0 mm 0.00 in0.0 mm
07:50 AM 30.4°F-0.9°C 28.3°F-2.1°C 92% 13.8 mph E22.2 kmh E 13.8 mph22.2 kmh 29.90 in1012.5 mb - 0.00 in0.0 mm 0.00 in0.0 mm
07:40 AM 30.3°F-0.9°C 28.2°F-2.1°C 92% 10.4 mph E16.7 kmh E 15.0 mph24.1 kmh 29.90 in1012.5 mb - 0.00 in0.0 mm 0.00 in0.0 mm
07:30 AM 30.2°F-1.0°C 28.4°F-2.0°C 93% 12.7 mph E20.4 kmh E 20.7 mph33.3 kmh 29.90 in1012.5 mb - 0.00 in0.0 mm 0.00 in0.0 mm
07:20 AM 30.0°F-1.1°C 27.9°F-2.3°C 92% 13.8 mph E22.2 kmh E 19.6 mph31.5 kmh 29.91 in1012.9 mb - 0.00 in0.0 mm 0.00 in0.0 mm
07:10 AM 29.8°F-1.2°C 27.5°F-2.5°C 91% 15.0 mph E24.1 kmh E 17.3 mph27.8 kmh 29.91 in1012.9 mb - 0.00 in0.0 mm 0.00 in0.0 mm
07:00 AM 29.6°F-1.3°C 27.3°F-2.6°C 91% 12.7 mph E20.4 kmh E 17.3 mph27.8 kmh 29.93 in1013.5 mb - 0.00 in0.0 mm 0.00 in0.0 mm
06:50 AM 29.5°F-1.4°C 27.0°F-2.8°C 90% 15.0 mph E24.1 kmh E 18.4 mph29.6 kmh 29.94 in1013.9 mb - 0.00 in0.0 mm 0.00 in0.0 mm
06:40 AM 29.5°F-1.4°C 27.0°F-2.8°C 90% 12.7 mph E20.4 kmh E 17.3 mph27.8 kmh 29.95 in1014.2 mb - 0.00 in0.0 mm 0.00 in0.0 mm
06:30 AM 29.5°F-1.4°C 27.2°F-2.7°C 91% 12.7 mph ENE20.4 kmh ENE 18.4 mph29.6 kmh 29.94 in1013.9 mb - 0.00 in0.0 mm 0.00 in0.0 mm
06:20 AM 29.4°F-1.4°C 26.8°F-2.9°C 90% 13.8 mph E22.2 kmh E 23.0 mph37.0 kmh 29.94 in1013.9 mb - 0.00 in0.0 mm 0.00 in0.0 mm
06:10 AM 29.2°F-1.6°C 26.6°F-3.0°C 90% 13.8 mph E22.2 kmh E 15.0 mph24.1 kmh 29.93 in1013.5 mb - 0.00 in0.0 mm 0.00 in0.0 mm
06:00 AM 29.2°F-1.6°C 26.6°F-3.0°C 90% 15.0 mph E24.1 kmh E 17.3 mph27.8 kmh 29.96 in1014.6 mb - 0.00 in0.0 mm 0.00 in0.0 mm
05:50 AM 29.1°F-1.6°C 26.6°F-3.0°C 90% 12.7 mph E20.4 kmh E 17.3 mph27.8 kmh 29.99 in1015.6 mb - 0.00 in0.0 mm 0.00 in0.0 mm
05:40 AM 29.1°F-1.6°C 26.5°F-3.1°C 90% 12.7 mph E20.4 kmh E 16.1 mph25.9 kmh 29.99 in1015.6 mb - 0.00 in0.0 mm 0.00 in0.0 mm
05:30 AM 28.9°F-1.7°C 26.6°F-3.0°C 91% 9.2 mph E14.8 kmh E 13.8 mph22.2 kmh 30.01 in1016.3 mb - 0.00 in0.0 mm 0.00 in0.0 mm
05:20 AM 28.8°F-1.8°C 26.8°F-2.9°C 92% 11.5 mph E18.5 kmh E 16.1 mph25.9 kmh 30.01 in1016.3 mb - 0.00 in0.0 mm 0.00 in0.0 mm
05:10 AM 28.7°F-1.8°C 26.4°F-3.1°C 91% 13.8 mph E22.2 kmh E 17.3 mph27.8 kmh 30.02 in1016.6 mb - 0.00 in0.0 mm 0.00 in0.0 mm
05:00 AM 28.7°F-1.8°C 26.4°F-3.1°C 91% 10.4 mph E16.7 kmh E 15.0 mph24.1 kmh 30.04 in1017.3 mb - 0.00 in0.0 mm 0.00 in0.0 mm
04:50 AM 28.6°F-1.9°C 26.3°F-3.2°C 91% 9.2 mph E14.8 kmh E 11.5 mph18.5 kmh 30.06 in1017.9 mb - 0.00 in0.0 mm 0.00 in0.0 mm
04:40 AM 28.6°F-1.9°C 26.3°F-3.2°C 91% 9.2 mph E14.8 kmh E 11.5 mph18.5 kmh 30.07 in1018.3 mb - 0.00 in0.0 mm 0.00 in0.0 mm
04:30 AM 28.6°F-1.9°C 26.3°F-3.2°C 91% 10.4 mph E16.7 kmh E 15.0 mph24.1 kmh 30.07 in1018.3 mb - 0.00 in0.0 mm 0.00 in0.0 mm
04:20 AM 28.6°F-1.9°C 26.3°F-3.2°C 91% 9.2 mph E14.8 kmh E 11.5 mph18.5 kmh 30.07 in1018.3 mb - 0.00 in0.0 mm 0.00 in0.0 mm
04:10 AM 28.7°F-1.8°C 26.1°F-3.3°C 90% 10.4 mph E16.7 kmh E 15.0 mph24.1 kmh 30.08 in1018.6 mb - 0.00 in0.0 mm 0.00 in0.0 mm
04:00 AM 28.7°F-1.8°C 26.1°F-3.3°C 90% 8.1 mph E13.0 kmh E 13.8 mph22.2 kmh 30.09 in1019.0 mb - 0.00 in0.0 mm 0.00 in0.0 mm
03:50 AM 28.8°F-1.8°C 26.0°F-3.3°C 89% 10.4 mph E16.7 kmh E 15.0 mph24.1 kmh 30.10 in1019.3 mb - 0.00 in0.0 mm 0.00 in0.0 mm
03:40 AM 28.9°F-1.7°C 25.8°F-3.4°C 88% 11.5 mph E18.5 kmh E 15.0 mph24.1 kmh 30.10 in1019.3 mb - 0.00 in0.0 mm 0.00 in0.0 mm
03:30 AM 29.1°F-1.6°C 25.4°F-3.7°C 86% 8.1 mph E13.0 kmh E 11.5 mph18.5 kmh 30.10 in1019.3 mb - 0.00 in0.0 mm 0.00 in0.0 mm
03:20 AM 29.1°F-1.6°C 25.4°F-3.7°C 86% 11.5 mph E18.5 kmh E 16.1 mph25.9 kmh 30.11 in1019.6 mb - 0.00 in0.0 mm 0.00 in0.0 mm
03:10 AM 29.2°F-1.6°C 25.3°F-3.7°C 85% 6.9 mph ENE11.1 kmh ENE 8.1 mph13.0 kmh 30.13 in1020.3 mb - 0.00 in0.0 mm 0.00 in0.0 mm
03:00 AM 29.7°F-1.3°C 24.9°F-3.9°C 82% 9.2 mph E14.8 kmh E 11.5 mph18.5 kmh 30.15 in1021.0 mb - 0.00 in0.0 mm 0.00 in0.0 mm
02:50 AM 30.1°F-1.1°C 24.4°F-4.2°C 79% 10.4 mph E16.7 kmh E 13.8 mph22.2 kmh 30.15 in1021.0 mb - 0.00 in0.0 mm 0.00 in0.0 mm
02:40 AM 30.1°F-1.1°C 24.1°F-4.4°C 78% 6.9 mph E11.1 kmh E 12.7 mph20.4 kmh 30.15 in1021.0 mb - 0.00 in0.0 mm 0.00 in0.0 mm
02:30 AM 30.1°F-1.1°C 24.1°F-4.4°C 78% 9.2 mph E14.8 kmh E 13.8 mph22.2 kmh 30.16 in1021.3 mb - 0.00 in0.0 mm 0.00 in0.0 mm
02:20 AM 30.1°F-1.1°C 24.1°F-4.4°C 78% 6.9 mph E11.1 kmh E 10.4 mph16.7 kmh 30.17 in1021.7 mb - 0.00 in0.0 mm 0.00 in0.0 mm
02:10 AM 30.1°F-1.1°C 24.1°F-4.4°C 78% 9.2 mph E14.8 kmh E 12.7 mph20.4 kmh 30.17 in1021.7 mb - 0.00 in0.0 mm 0.00 in0.0 mm
02:00 AM 30.2°F-1.0°C 23.9°F-4.5°C 77% 9.2 mph E14.8 kmh E 12.7 mph20.4 kmh 30.18 in1022.0 mb - 0.00 in0.0 mm 0.00 in0.0 mm
01:50 AM 30.3°F-0.9°C 24.0°F-4.4°C 77% 9.2 mph E14.8 kmh E 15.0 mph24.1 kmh 30.19 in1022.4 mb - 0.00 in0.0 mm 0.00 in0.0 mm
01:40 AM 30.3°F-0.9°C 24.0°F-4.4°C 77% 9.2 mph E14.8 kmh E 11.5 mph18.5 kmh 30.21 in1023.0 mb - 0.00 in0.0 mm 0.00 in0.0 mm
01:30 AM 30.2°F-1.0°C 23.9°F-4.5°C 77% 9.2 mph E14.8 kmh E 12.7 mph20.4 kmh 30.21 in1023.0 mb - 0.00 in0.0 mm 0.00 in0.0 mm
01:20 AM 30.2°F-1.0°C 24.2°F-4.3°C 78% 6.9 mph E11.1 kmh E 11.5 mph18.5 kmh 30.23 in1023.7 mb - 0.00 in0.0 mm 0.00 in0.0 mm
01:10 AM 30.2°F-1.0°C 23.9°F-4.5°C 77% 10.4 mph E16.7 kmh E 13.8 mph22.2 kmh 30.24 in1024.0 mb - 0.00 in0.0 mm 0.00 in0.0 mm
01:00 AM 30.3°F-0.9°C 23.9°F-4.5°C 77% 6.9 mph E11.1 kmh E 9.2 mph14.8 kmh 30.25 in1024.4 mb - 0.00 in0.0 mm 0.00 in0.0 mm
12:50 AM 30.3°F-0.9°C 24.0°F-4.4°C 77% 9.2 mph E14.8 kmh E 12.7 mph20.4 kmh 30.25 in1024.4 mb - 0.00 in0.0 mm 0.00 in0.0 mm
12:40 AM 30.3°F-0.9°C 24.0°F-4.4°C 77% 8.1 mph E13.0 kmh E 10.4 mph16.7 kmh 30.27 in1025.1 mb - 0.00 in0.0 mm 0.00 in0.0 mm
12:30 AM 30.3°F-0.9°C 24.0°F-4.4°C 77% 8.1 mph E13.0 kmh E 11.5 mph18.5 kmh 30.27 in1025.1 mb - 0.00 in0.0 mm 0.00 in0.0 mm
12:20 AM 30.3°F-0.9°C 24.0°F-4.4°C 77% 8.1 mph E13.0 kmh E 10.4 mph16.7 kmh 30.27 in1025.1 mb - 0.00 in0.0 mm 0.00 in0.0 mm
12:10 AM 30.4°F-0.9°C 23.7°F-4.6°C 76% 8.1 mph E13.0 kmh E 15.0 mph24.1 kmh 30.27 in1025.1 mb - 0.00 in0.0 mm 0.00 in0.0 mm
12:00 AM 30.3°F-0.9°C 23.6°F-4.7°C 76% 8.1 mph E13.0 kmh E 11.5 mph18.5 kmh 30.28 in1025.4 mb - 0.00 in0.0 mm 0.00 in0.0 mm